createdAt,value
2022-08-28T00:01:20.981Z,20.45
2022-08-28T00:04:24.410Z,20.49
2022-08-28T00:07:27.464Z,20.46
2022-08-28T00:10:30.563Z,20.55
2022-08-28T00:13:33.262Z,20.39
2022-08-28T00:16:36.683Z,20.36
2022-08-28T00:19:39.436Z,20.40
2022-08-28T00:22:42.506Z,20.37
2022-08-28T00:25:45.207Z,20.34
2022-08-28T00:28:48.220Z,20.42
2022-08-28T00:31:51.491Z,20.39
2022-08-28T00:34:54.489Z,20.49
2022-08-28T00:37:57.609Z,20.45
2022-08-28T00:41:03.928Z,20.24
2022-08-28T00:44:20.553Z,20.37
2022-08-28T00:47:25.171Z,20.37
2022-08-28T00:50:52.474Z,20.42
2022-08-28T00:53:58.973Z,20.41
2022-08-28T00:57:07.381Z,20.44
2022-08-28T01:00:19.820Z,20.34
2022-08-28T01:03:25.067Z,20.36
2022-08-28T01:06:29.581Z,20.40
2022-08-28T01:09:33.678Z,20.46
2022-08-28T01:12:37.168Z,20.51
2022-08-28T01:15:42.212Z,20.43
2022-08-28T01:18:46.518Z,20.58
2022-08-28T01:22:19.451Z,20.75
2022-08-28T01:25:24.763Z,20.87
2022-08-28T01:28:28.023Z,20.92
2022-08-28T01:31:32.148Z,20.95
2022-08-28T01:34:35.420Z,20.93
2022-08-28T01:37:40.452Z,20.90
2022-08-28T01:40:46.652Z,20.90
2022-08-28T01:43:50.812Z,20.88
2022-08-28T01:46:56.420Z,20.87
2022-08-28T01:49:59.831Z,20.83
2022-08-28T01:53:05.015Z,20.82
2022-08-28T01:56:13.730Z,20.78
2022-08-28T01:59:16.405Z,20.82
2022-08-28T02:02:19.473Z,20.84
2022-08-28T02:05:28.340Z,20.75
2022-08-28T02:08:30.927Z,20.61
2022-08-28T02:11:34.311Z,20.61
2022-08-28T02:14:37.079Z,20.59
2022-08-28T02:17:40.124Z,20.48
2022-08-28T02:20:43.045Z,20.47
2022-08-28T02:23:47.692Z,20.46
2022-08-28T02:26:50.270Z,20.49
2022-08-28T02:29:53.332Z,20.50
2022-08-28T02:32:56.535Z,20.46
2022-08-28T02:35:59.532Z,20.46
2022-08-28T02:39:02.381Z,20.50
2022-08-28T02:42:05.927Z,20.51
2022-08-28T02:45:11.809Z,20.52
2022-08-28T02:48:16.715Z,20.56
2022-08-28T02:51:23.137Z,20.65
2022-08-28T02:54:29.552Z,20.60
2022-08-28T02:57:32.391Z,20.63
2022-08-28T03:00:35.564Z,20.64
2022-08-28T03:03:41.349Z,20.55
2022-08-28T03:06:44.721Z,20.54
2022-08-28T03:09:47.387Z,20.47
2022-08-28T03:12:50.339Z,20.44
2022-08-28T03:15:52.969Z,20.49
2022-08-28T03:18:59.142Z,20.39
2022-08-28T03:22:01.920Z,20.44
2022-08-28T03:25:06.203Z,20.40
2022-08-28T03:28:08.865Z,20.39
2022-08-28T03:31:18.140Z,20.39
2022-08-28T03:34:21.124Z,20.29
2022-08-28T03:37:24.273Z,20.29
2022-08-28T03:40:27.197Z,20.34
2022-08-28T03:43:30.403Z,20.40
2022-08-28T03:46:33.938Z,20.39
2022-08-28T03:49:36.923Z,20.39
2022-08-28T03:52:40.974Z,20.35
2022-08-28T03:55:44.457Z,20.47
2022-08-28T03:58:47.741Z,20.49
2022-08-28T04:01:50.773Z,20.48
2022-08-28T04:04:53.831Z,20.45
2022-08-28T04:07:56.484Z,20.48
2022-08-28T04:11:00.968Z,20.52
2022-08-28T04:14:03.820Z,20.50
2022-08-28T04:17:07.202Z,20.42
2022-08-28T04:20:11.123Z,20.50
2022-08-28T04:23:14.045Z,20.48
2022-08-28T04:26:20.599Z,20.55
2022-08-28T04:29:23.807Z,20.59
2022-08-28T04:32:26.715Z,20.61
2022-08-28T04:35:29.698Z,20.39
2022-08-28T04:38:32.528Z,20.52
2022-08-28T04:41:37.604Z,20.72
2022-08-28T04:44:40.224Z,20.79
2022-08-28T04:47:43.408Z,20.86
2022-08-28T04:50:48.234Z,20.90
2022-08-28T04:53:51.208Z,20.93
2022-08-28T04:56:54.480Z,20.95
2022-08-28T04:59:58.812Z,21.06
2022-08-28T05:03:01.440Z,21.10
2022-08-28T05:06:04.711Z,21.14
2022-08-28T05:09:07.333Z,21.13
2022-08-28T05:12:16.012Z,21.24
2022-08-28T05:15:18.600Z,21.27
2022-08-28T05:18:23.927Z,21.33
2022-08-28T05:21:27.808Z,21.54
2022-08-28T05:24:30.755Z,21.37
2022-08-28T05:27:33.426Z,21.70
2022-08-28T05:30:37.772Z,21.82
2022-08-28T05:33:40.448Z,21.71
2022-08-28T05:36:43.444Z,21.84
2022-08-28T05:39:46.077Z,21.91
2022-08-28T05:42:49.919Z,22.14
2022-08-28T05:46:00.533Z,22.42
2022-08-28T05:49:09.088Z,22.44
2022-08-28T05:52:12.631Z,22.64
2022-08-28T05:55:19.051Z,22.79
2022-08-28T05:58:31.485Z,22.99
2022-08-28T06:01:39.822Z,22.87
2022-08-28T06:04:42.867Z,23.04
2022-08-28T06:07:45.784Z,23.09
2022-08-28T06:10:50.896Z,23.30
2022-08-28T06:13:53.737Z,23.47
2022-08-28T06:16:57.496Z,23.39
2022-08-28T06:20:00.151Z,23.55
2022-08-28T06:23:03.102Z,23.72
2022-08-28T06:26:07.118Z,23.77
2022-08-28T06:29:13.172Z,23.94
2022-08-28T06:32:15.912Z,24.08
2022-08-28T06:35:18.843Z,24.20
2022-08-28T06:38:24.717Z,24.25
2022-08-28T06:41:29.322Z,24.36
2022-08-28T06:44:32.903Z,24.36
2022-08-28T06:47:35.975Z,24.48
2022-08-28T06:50:41.057Z,24.57
2022-08-28T06:53:46.476Z,24.67
2022-08-28T06:56:49.811Z,24.60
2022-08-28T06:59:56.936Z,24.47
2022-08-28T07:03:00.003Z,24.70
2022-08-28T07:06:05.481Z,24.83
2022-08-28T07:09:13.392Z,24.84
2022-08-28T07:12:17.362Z,24.92
2022-08-28T07:15:20.319Z,25.11
2022-08-28T07:18:23.478Z,25.12
2022-08-28T07:21:27.056Z,25.26
2022-08-28T07:24:30.473Z,25.13
2022-08-28T07:27:33.567Z,25.40
2022-08-28T07:30:36.489Z,25.56
2022-08-28T07:33:40.927Z,25.51
2022-08-28T07:36:44.740Z,25.76
2022-08-28T07:39:47.503Z,25.83
2022-08-28T07:43:09.252Z,25.88
2022-08-28T07:46:12.312Z,25.77
2022-08-28T07:49:18.523Z,25.94
2022-08-28T07:52:21.163Z,26.18
2022-08-28T07:55:24.346Z,26.22
2022-08-28T07:58:27.083Z,26.31
2022-08-28T08:01:31.518Z,26.41
2022-08-28T08:04:35.235Z,26.32
2022-08-28T08:07:41.919Z,26.32
2022-08-28T08:11:06.403Z,26.56
2022-08-28T08:14:09.208Z,26.82
2022-08-28T08:17:12.218Z,26.96
2022-08-28T08:20:14.920Z,27.16
2022-08-28T08:23:18.020Z,27.30
2022-08-28T08:26:23.579Z,27.45
2022-08-28T08:29:27.964Z,27.56
2022-08-28T08:32:30.729Z,27.83
2022-08-28T08:35:33.732Z,28.00
2022-08-28T08:38:37.303Z,28.01
2022-08-28T08:41:40.254Z,28.14
2022-08-28T08:44:47.614Z,28.21
2022-08-28T08:47:52.655Z,28.18
2022-08-28T08:50:59.295Z,28.40
2022-08-28T08:54:21.546Z,28.41
2022-08-28T08:57:24.307Z,28.45
2022-08-28T09:00:31.470Z,28.56
2022-08-28T09:03:53.911Z,28.49
2022-08-28T09:07:01.755Z,28.71
2022-08-28T09:10:07.815Z,28.89
2022-08-28T09:13:31.437Z,29.17
2022-08-28T09:16:39.923Z,29.24
2022-08-28T09:19:42.945Z,29.28
2022-08-28T09:22:47.315Z,29.47
2022-08-28T09:25:59.601Z,29.49
2022-08-28T09:29:26.786Z,29.56
2022-08-28T09:32:29.656Z,29.73
2022-08-28T09:35:35.719Z,29.93
2022-08-28T09:38:39.142Z,29.79
2022-08-28T09:42:22.449Z,29.94
2022-08-28T09:45:29.021Z,30.04
2022-08-28T09:48:34.608Z,30.06
2022-08-28T09:51:39.850Z,30.16
2022-08-28T09:54:44.919Z,29.99
2022-08-28T09:57:48.072Z,30.13
2022-08-28T10:01:04.302Z,30.36
2022-08-28T10:04:27.507Z,30.57
2022-08-28T10:07:55.832Z,30.87
2022-08-28T10:11:16.600Z,30.95
2022-08-28T10:14:22.300Z,31.14
2022-08-28T10:17:40.741Z,31.08
2022-08-28T10:21:12.534Z,31.21
2022-08-28T10:24:28.309Z,31.14
2022-08-28T10:27:43.303Z,31.27
2022-08-28T10:31:06.588Z,31.22
2022-08-28T10:34:30.300Z,31.39
2022-08-28T10:37:56.450Z,31.45
2022-08-28T10:41:04.916Z,31.58
2022-08-28T10:44:11.252Z,31.46
2022-08-28T10:47:15.075Z,31.48
2022-08-28T10:50:26.811Z,31.60
2022-08-28T10:53:37.932Z,31.76
2022-08-28T10:56:46.616Z,31.74
2022-08-28T11:00:04.480Z,32.09
2022-08-28T11:03:33.211Z,32.29
2022-08-28T11:07:11.376Z,32.32
2022-08-28T11:10:29.222Z,32.61
2022-08-28T11:13:51.623Z,32.45
2022-08-28T11:17:00.056Z,32.40
2022-08-28T11:20:29.722Z,32.17
2022-08-28T11:23:59.842Z,32.26
2022-08-28T11:27:12.027Z,32.49
2022-08-28T11:30:32.852Z,32.36
2022-08-28T11:33:44.667Z,32.56
2022-08-28T11:36:47.660Z,32.40
2022-08-28T11:39:50.352Z,32.66
2022-08-28T11:43:16.945Z,32.80
2022-08-28T11:46:31.510Z,32.89
2022-08-28T11:49:34.548Z,32.89
2022-08-28T11:52:54.743Z,32.97
2022-08-28T11:56:28.348Z,32.58
2022-08-28T11:59:47.141Z,32.42
2022-08-28T12:02:55.625Z,31.98
2022-08-28T12:06:00.599Z,31.91
2022-08-28T12:09:04.315Z,32.17
2022-08-28T12:12:22.280Z,32.53
2022-08-28T12:15:27.902Z,33.07
2022-08-28T12:18:40.303Z,33.23
2022-08-28T12:21:43.832Z,33.43
2022-08-28T12:25:08.644Z,33.42
2022-08-28T12:28:22.759Z,33.26
2022-08-28T12:31:45.516Z,33.79
2022-08-28T12:35:08.493Z,33.83
2022-08-28T12:38:20.260Z,33.65
2022-08-28T12:41:24.635Z,33.76
2022-08-28T12:44:31.099Z,33.57
2022-08-28T12:47:35.901Z,33.48
2022-08-28T12:50:39.799Z,33.52
2022-08-28T12:53:48.271Z,33.65
2022-08-28T12:56:51.309Z,34.05
2022-08-28T12:59:55.923Z,33.75
2022-08-28T13:03:00.651Z,33.77
2022-08-28T13:06:06.610Z,33.91
2022-08-28T13:09:18.666Z,34.02
2022-08-28T13:12:54.404Z,33.98
2022-08-28T13:15:55.299Z,34.05
2022-08-28T13:19:06.772Z,34.12
2022-08-28T13:22:35.732Z,33.93
2022-08-28T13:25:38.460Z,33.95
2022-08-28T13:28:43.831Z,34.28
2022-08-28T13:31:57.251Z,34.15
2022-08-28T13:35:09.453Z,34.19
2022-08-28T13:38:16.073Z,34.32
2022-08-28T13:41:19.042Z,34.33
2022-08-28T13:44:24.311Z,34.29
2022-08-28T13:47:27.516Z,34.00
2022-08-28T13:50:30.659Z,33.48
2022-08-28T13:53:33.625Z,33.29
2022-08-28T13:56:36.344Z,33.31
2022-08-28T13:59:39.324Z,33.36
2022-08-28T14:03:01.035Z,33.23
2022-08-28T14:06:07.486Z,33.16
2022-08-28T14:09:15.133Z,33.43
2022-08-28T14:12:20.546Z,33.44
2022-08-28T14:15:23.240Z,33.51
2022-08-28T14:18:26.586Z,33.31
2022-08-28T14:21:29.356Z,33.15
2022-08-28T14:24:32.754Z,32.94
2022-08-28T14:27:35.993Z,33.05
2022-08-28T14:30:47.445Z,33.18
2022-08-28T14:33:50.189Z,33.54
2022-08-28T14:36:55.400Z,33.72
2022-08-28T14:39:58.031Z,33.89
2022-08-28T14:43:01.001Z,33.46
2022-08-28T14:46:05.502Z,33.33
2022-08-28T14:49:13.755Z,33.40
2022-08-28T14:52:16.400Z,33.54
2022-08-28T14:55:19.331Z,33.51
2022-08-28T14:58:22.037Z,33.64
2022-08-28T15:01:41.266Z,33.76
2022-08-28T15:04:43.953Z,33.82
2022-08-28T15:07:46.916Z,33.72
2022-08-28T15:10:51.131Z,33.52
2022-08-28T15:13:55.390Z,33.42
2022-08-28T15:16:58.190Z,33.33
2022-08-28T15:20:01.238Z,32.86
2022-08-28T15:23:03.874Z,32.60
2022-08-28T15:26:06.940Z,32.08
2022-08-28T15:29:11.912Z,31.63
2022-08-28T15:32:14.935Z,31.54
2022-08-28T15:35:17.639Z,30.99
2022-08-28T15:38:20.679Z,30.76
2022-08-28T15:41:26.371Z,30.72
2022-08-28T15:44:29.591Z,30.52
2022-08-28T15:47:32.185Z,30.45
2022-08-28T15:50:35.434Z,30.67
2022-08-28T15:53:39.270Z,30.64
2022-08-28T15:56:42.201Z,30.52
2022-08-28T15:59:50.156Z,30.37
2022-08-28T16:02:59.802Z,30.32
2022-08-28T16:06:03.680Z,30.36
2022-08-28T16:09:07.766Z,30.40
2022-08-28T16:12:10.719Z,30.20
2022-08-28T16:15:14.103Z,30.16
2022-08-28T16:18:23.337Z,30.12
2022-08-28T16:21:27.514Z,29.96
2022-08-28T16:24:31.228Z,29.88
2022-08-28T16:27:34.226Z,29.80
2022-08-28T16:30:43.779Z,29.69
2022-08-28T16:33:47.195Z,29.56
2022-08-28T16:36:50.608Z,29.55
2022-08-28T16:39:56.072Z,29.45
2022-08-28T16:42:59.172Z,29.33
2022-08-28T16:46:02.949Z,29.17
2022-08-28T16:49:05.843Z,28.96
2022-08-28T16:52:08.475Z,28.79
2022-08-28T16:55:12.280Z,28.76
2022-08-28T16:58:17.031Z,28.80
2022-08-28T17:01:24.117Z,28.72
2022-08-28T17:04:27.215Z,28.65
2022-08-28T17:07:30.699Z,28.53
2022-08-28T17:10:35.844Z,28.41
2022-08-28T17:13:39.546Z,28.33
2022-08-28T17:16:42.203Z,28.20
2022-08-28T17:19:45.195Z,28.08
2022-08-28T17:22:47.828Z,27.97
2022-08-28T17:25:51.016Z,27.85
2022-08-28T17:28:53.731Z,27.75
2022-08-28T17:31:56.819Z,27.59
2022-08-28T17:35:00.272Z,27.49
2022-08-28T17:38:03.481Z,27.40
2022-08-28T17:41:06.580Z,27.27
2022-08-28T17:44:10.274Z,27.20
2022-08-28T17:47:13.180Z,27.09
2022-08-28T17:50:16.396Z,26.96
2022-08-28T17:53:19.753Z,27.06
2022-08-28T17:56:22.796Z,27.00
2022-08-28T17:59:38.952Z,26.87
2022-08-28T18:02:42.918Z,26.60
2022-08-28T18:05:46.502Z,26.58
2022-08-28T18:08:51.794Z,26.57
2022-08-28T18:11:54.702Z,26.49
2022-08-28T18:14:57.419Z,26.54
2022-08-28T18:18:00.538Z,26.48
2022-08-28T18:21:03.146Z,26.49
2022-08-28T18:24:06.689Z,26.46
2022-08-28T18:27:09.512Z,26.25
2022-08-28T18:30:12.721Z,26.23
2022-08-28T18:33:17.734Z,26.10
2022-08-28T18:36:23.049Z,25.90
2022-08-28T18:39:29.830Z,25.61
2022-08-28T18:42:33.052Z,25.79
2022-08-28T18:45:36.240Z,25.81
2022-08-28T18:48:39.172Z,25.88
2022-08-28T18:51:43.503Z,25.94
2022-08-28T18:54:46.448Z,26.02
2022-08-28T18:57:50.177Z,26.00
2022-08-28T19:00:55.055Z,26.05
2022-08-28T19:03:57.773Z,25.96
2022-08-28T19:07:00.711Z,25.91
2022-08-28T19:10:04.900Z,25.76
2022-08-28T19:13:08.630Z,25.79
2022-08-28T19:16:17.037Z,25.85
2022-08-28T19:19:20.020Z,25.86
2022-08-28T19:22:22.824Z,25.79
2022-08-28T19:25:29.349Z,25.67
2022-08-28T19:28:33.466Z,25.76
2022-08-28T19:31:37.264Z,25.66
2022-08-28T19:34:39.975Z,25.53
2022-08-28T19:37:43.589Z,25.64
2022-08-28T19:40:46.298Z,25.55
2022-08-28T19:43:49.352Z,25.59
2022-08-28T19:46:54.233Z,25.56
2022-08-28T19:49:57.213Z,25.38
2022-08-28T19:52:59.911Z,25.36
2022-08-28T19:56:05.121Z,25.42
2022-08-28T19:59:09.041Z,25.45
2022-08-28T20:02:12.047Z,25.32
2022-08-28T20:05:15.764Z,25.26
2022-08-28T20:08:20.051Z,25.15
2022-08-28T20:11:30.393Z,25.04
2022-08-28T20:14:34.421Z,24.97
2022-08-28T20:17:43.948Z,24.88
2022-08-28T20:20:52.618Z,24.91
2022-08-28T20:23:55.597Z,24.79
2022-08-28T20:26:58.235Z,24.86
2022-08-28T20:30:07.162Z,24.87
2022-08-28T20:33:14.272Z,24.75
2022-08-28T20:36:21.134Z,24.70
2022-08-28T20:39:24.468Z,24.67
2022-08-28T20:42:31.646Z,24.60
2022-08-28T20:45:34.537Z,24.49
2022-08-28T20:48:38.098Z,24.42
2022-08-28T20:51:58.880Z,24.31
2022-08-28T20:55:02.818Z,24.24
2022-08-28T20:58:05.658Z,24.13
2022-08-28T21:01:08.750Z,24.03
2022-08-28T21:04:11.575Z,23.92
2022-08-28T21:07:17.127Z,23.96
2022-08-28T21:10:19.836Z,23.89
2022-08-28T21:13:23.377Z,23.86
2022-08-28T21:16:26.179Z,23.87
2022-08-28T21:19:30.252Z,23.84
2022-08-28T21:22:34.500Z,23.71
2022-08-28T21:25:41.398Z,23.58
2022-08-28T21:28:44.016Z,23.57
2022-08-28T21:31:49.487Z,23.50
2022-08-28T21:34:53.106Z,23.42
2022-08-28T21:37:56.078Z,23.36
2022-08-28T21:41:02.263Z,23.33
2022-08-28T21:44:06.091Z,23.36
2022-08-28T21:47:08.744Z,23.33
2022-08-28T21:50:12.379Z,23.33
2022-08-28T21:53:16.446Z,23.30
2022-08-28T21:56:26.867Z,23.28
2022-08-28T21:59:33.075Z,23.25
2022-08-28T22:02:40.757Z,23.24
2022-08-28T22:05:45.802Z,23.19
2022-08-28T22:08:48.720Z,23.22
2022-08-28T22:11:51.752Z,23.23
2022-08-28T22:14:54.360Z,22.99
2022-08-28T22:17:57.453Z,23.19
2022-08-28T22:21:19.461Z,23.16
2022-08-28T22:24:23.593Z,23.14
2022-08-28T22:27:26.412Z,23.13
2022-08-28T22:30:29.512Z,23.07
2022-08-28T22:33:32.994Z,23.04
2022-08-28T22:36:38.075Z,23.02
2022-08-28T22:39:42.471Z,22.98
2022-08-28T22:42:45.474Z,22.96
2022-08-28T22:45:48.914Z,22.90
2022-08-28T22:48:51.878Z,22.85
2022-08-28T22:51:54.558Z,22.81
2022-08-28T22:54:57.977Z,22.76
2022-08-28T22:58:01.022Z,22.73
2022-08-28T23:01:09.228Z,22.65
2022-08-28T23:04:12.166Z,22.54
2022-08-28T23:07:15.215Z,22.41
2022-08-28T23:10:18.700Z,22.30
2022-08-28T23:13:21.739Z,22.36
2022-08-28T23:16:24.552Z,22.22
2022-08-28T23:19:28.611Z,22.35
2022-08-28T23:22:33.468Z,22.38
2022-08-28T23:25:36.537Z,22.34
2022-08-28T23:28:39.741Z,22.30
2022-08-28T23:31:42.827Z,22.28
2022-08-28T23:34:45.520Z,22.29
2022-08-28T23:37:51.973Z,22.30
2022-08-28T23:40:55.101Z,22.36
2022-08-28T23:43:58.117Z,22.33
2022-08-28T23:47:00.823Z,22.30
2022-08-28T23:50:07.685Z,22.26
2022-08-28T23:53:10.696Z,22.21
2022-08-28T23:56:13.980Z,22.21
2022-08-28T23:59:16.687Z,22.15
